»·PEaware :: N343GE KCMA-KSNA

N343GE :: KCMA-KSNA

FLIGHT INFORMATION

Flight Status: Arrived
Operator: Privately registered:
United States
More flights under this callsign
Pilot: Hyatt B. (30410)
Aircraft: PIPER PA-28 CHEROKEE ARCHER
(PA28)
More flights by this aircraft type
Origin: KCMA Camarillo
United States
Destination: KSNA John Wayne-Orange Co
United States
More flights between these airports :: More routes between these airports
Route: RUGBY LAX VPLVT
File this flight plan on PilotEdge
Remarks:
Altitude:
(Current/Filed)
5,500ft
Speed:
(Current/Filed)
110kts
Departed: 22-Jul-20 10:41 AM
Arrived: 22-Jul-20 11:27 AM
Distance/Time
Traveled:
69nm/0:45
Distance/Time
To Go:
Arrived

Flight Plot

Page will automatically refresh every two minutes.

Flight plan parsing failed; only flown route is shown


Map Options




Map Legend


Flown Route
Filed Route
Departure Airport
Arrival Airport
Navaid (VOR, NDB)
Fix

Horizontal Profiles

Position Reports

Time Latitude Longitude Heading Altitude Ground
Speed
22-Jul-20 10:26 34.210350 -119.076471 90 81ft 0kts
22-Jul-20 10:28 34.210868 -119.076824 271 81ft 5kts
22-Jul-20 10:29 34.210888 -119.079110 270 80ft 7kts
22-Jul-20 10:30 34.210914 -119.082437 270 78ft 12kts
22-Jul-20 10:31 34.211245 -119.084618 359 77ft 4kts
22-Jul-20 10:32 34.212411 -119.084110 30 78ft 0kts
22-Jul-20 10:33 34.212540 -119.084161 309 78ft 0kts
22-Jul-20 10:34 34.212540 -119.084161 309 78ft 0kts
22-Jul-20 10:35 34.212540 -119.084161 309 78ft 0kts
22-Jul-20 10:36 34.212540 -119.084161 309 78ft 0kts
22-Jul-20 10:37 34.212540 -119.084161 309 78ft 0kts
22-Jul-20 10:38 34.212540 -119.084161 309 78ft 0kts
22-Jul-20 10:39 34.212890 -119.084550 333 79ft 3kts
22-Jul-20 10:40 34.213692 -119.085337 268 79ft 5kts
22-Jul-20 10:41 34.213797 -119.105440 270 469ft 88kts
22-Jul-20 10:42 34.205358 -119.099396 90 1246ft 93kts
22-Jul-20 10:43 34.206550 -119.067640 84 2023ft 96kts
22-Jul-20 10:43 34.208529 -119.040841 84 2637ft 97kts
22-Jul-20 10:45 34.211952 -119.002801 84 3433ft 98kts
22-Jul-20 10:46 34.213430 -118.969434 83 4063ft 99kts
22-Jul-20 10:46 34.216755 -118.941764 81 4550ft 101kts
22-Jul-20 10:47 34.221088 -118.906768 81 5047ft 103kts
22-Jul-20 10:49 34.226189 -118.867320 80 5520ft 109kts
22-Jul-20 10:49 34.230462 -118.835799 80 5518ft 115kts
22-Jul-20 10:50 34.235652 -118.797489 80 5518ft 115kts
22-Jul-20 10:51 34.240266 -118.759157 83 5518ft 115kts
22-Jul-20 10:52 34.243774 -118.720871 83 5517ft 113kts
22-Jul-20 10:53 34.247210 -118.683271 84 5518ft 112kts
22-Jul-20 10:54 34.247126 -118.645847 115 5517ft 111kts
22-Jul-20 10:55 34.221755 -118.625166 151 5518ft 111kts
22-Jul-20 10:56 34.194467 -118.607351 151 5518ft 112kts
22-Jul-20 10:57 34.166955 -118.589388 151 5518ft 112kts
22-Jul-20 10:58 34.139264 -118.571307 151 5518ft 113kts
22-Jul-20 10:59 34.112038 -118.552514 149 5518ft 113kts
22-Jul-20 11:00 34.084914 -118.533349 150 5518ft 113kts
22-Jul-20 11:01 34.057476 -118.514782 149 5518ft 113kts
22-Jul-20 11:02 34.030335 -118.495556 149 5518ft 113kts
22-Jul-20 11:03 34.003143 -118.476677 150 5518ft 113kts
22-Jul-20 11:04 33.975723 -118.458010 150 5518ft 113kts
22-Jul-20 11:05 33.948148 -118.439480 151 5518ft 113kts
22-Jul-20 11:06 33.921026 -118.420592 144 5518ft 113kts
22-Jul-20 11:07 33.895336 -118.398626 143 5518ft 113kts
22-Jul-20 11:08 33.869750 -118.376434 143 5518ft 113kts
22-Jul-20 11:09 33.844204 -118.354201 143 5518ft 113kts
22-Jul-20 11:10 33.818687 -118.331982 144 5518ft 113kts
22-Jul-20 11:11 33.793213 -118.309811 144 5518ft 113kts
22-Jul-20 11:12 33.768467 -118.286645 123 5519ft 113kts
22-Jul-20 11:13 33.753542 -118.253463 108 5518ft 113kts
22-Jul-20 11:14 33.746712 -118.216496 98 5518ft 113kts
22-Jul-20 11:15 33.742626 -118.178907 96 5518ft 113kts
22-Jul-20 11:16 33.739313 -118.141179 95 5518ft 113kts
22-Jul-20 11:17 33.736210 -118.103463 95 5518ft 113kts
22-Jul-20 11:18 33.733160 -118.065799 95 5518ft 113kts
22-Jul-20 11:19 33.730100 -118.027938 95 5518ft 113kts
22-Jul-20 11:20 33.727052 -117.990426 95 5186ft 108kts
22-Jul-20 11:21 33.724034 -117.953368 95 4388ft 113kts
22-Jul-20 11:22 33.721313 -117.916829 90 3565ft 109kts
22-Jul-20 11:23 33.714891 -117.879454 117 1964ft 117kts
22-Jul-20 11:24 33.697956 -117.855914 185 733ft 86kts
22-Jul-20 11:25 33.679934 -117.866138 207 55ft 67kts
22-Jul-20 11:26 33.672265 -117.871543 251 54ft 11kts
22-Jul-20 11:27 33.672115 -117.872158 253 54ft 0kts
22-Jul-20 11:28 33.671615 -117.873317 230 54ft 11kts
22-Jul-20 11:29 33.670639 -117.874235 213 55ft 0kts
22-Jul-20 11:30 33.670639 -117.874235 213 55ft 0kts
22-Jul-20 11:31 33.670639 -117.874235 213 55ft 0kts
22-Jul-20 11:32 33.670639 -117.874235 213 55ft 0kts

Navigation Log

Ident Type
Flight plan parsing failed, navigation log unavailable